createdAt,value
2023-04-27T00:01:42.079Z,67369.53
2023-04-27T00:04:09.404Z,67411.28
2023-04-27T00:06:36.843Z,67403.94
2023-04-27T00:09:04.590Z,67400.94
2023-04-27T00:11:31.716Z,67405.06
2023-04-27T00:13:58.743Z,67405.22
2023-04-27T00:16:26.136Z,67403.72
2023-04-27T00:18:53.859Z,67401.47
2023-04-27T00:21:21.019Z,67402.97
2023-04-27T00:23:48.058Z,67401.84
2023-04-27T00:26:15.126Z,67348.34
2023-04-27T00:28:44.575Z,67393.03
2023-04-27T00:31:11.661Z,67393.41
2023-04-27T00:33:38.766Z,67387.63
2023-04-27T00:36:06.598Z,67384.59
2023-04-27T00:38:33.642Z,67386.28
2023-04-27T00:41:04.944Z,67390.81
2023-04-27T00:43:32.653Z,67384.25
2023-04-27T00:46:00.280Z,67391.16
2023-04-27T00:48:27.631Z,67343.63
2023-04-27T00:50:54.876Z,67387.97
2023-04-27T00:53:22.282Z,67382.00
2023-04-27T00:55:49.953Z,67389.09
2023-04-27T00:58:17.180Z,67386.50
2023-04-27T01:00:44.262Z,67397.34
2023-04-27T01:03:11.842Z,67344.97
2023-04-27T01:05:39.312Z,67387.78
2023-04-27T01:08:08.313Z,67378.41
2023-04-27T01:10:36.133Z,67374.28
2023-04-27T01:13:03.337Z,67316.28
2023-04-27T01:15:31.321Z,67360.41
2023-04-27T01:17:59.686Z,67351.25
2023-04-27T01:20:31.928Z,67358.16
2023-04-27T01:22:59.777Z,67351.97
2023-04-27T01:25:26.752Z,67298.84
2023-04-27T01:27:54.462Z,67336.41
2023-04-27T01:30:24.345Z,67287.59
2023-04-27T01:32:52.278Z,67289.28
2023-04-27T01:35:19.895Z,67336.00
2023-04-27T01:37:47.129Z,67333.19
2023-04-27T01:40:14.488Z,67329.25
2023-04-27T01:42:42.136Z,67328.13
2023-04-27T01:45:10.004Z,67330.56
2023-04-27T01:47:38.053Z,67327.78
2023-04-27T01:50:06.246Z,67327.78
2023-04-27T01:52:33.348Z,67321.22
2023-04-27T01:55:03.132Z,67274.13
2023-04-27T01:57:31.010Z,67276.38
2023-04-27T01:59:58.131Z,67326.44
2023-04-27T02:02:25.369Z,67321.38
2023-04-27T02:04:52.648Z,67317.66
2023-04-27T02:07:19.898Z,67318.78
2023-04-27T02:09:47.532Z,67310.91
2023-04-27T02:12:14.625Z,67309.97
2023-04-27T02:14:41.669Z,67268.31
2023-04-27T02:17:08.749Z,67312.59
2023-04-27T02:19:36.404Z,67306.25
2023-04-27T02:22:04.078Z,67318.00
2023-04-27T02:24:31.177Z,67308.28
2023-04-27T02:26:58.239Z,67271.88
2023-04-27T02:29:30.076Z,67316.53
2023-04-27T02:31:57.508Z,67315.75
2023-04-27T02:34:24.604Z,67306.97
2023-04-27T02:36:52.003Z,67297.41
2023-04-27T02:39:20.095Z,67290.31
2023-04-27T02:41:47.142Z,67290.66
2023-04-27T02:44:15.806Z,67292.31
2023-04-27T02:46:42.966Z,67297.19
2023-04-27T02:49:10.030Z,67290.09
2023-04-27T02:51:37.076Z,67243.78
2023-04-27T02:54:04.253Z,67285.78
2023-04-27T02:56:31.583Z,67288.75
2023-04-27T02:58:59.579Z,67289.31
2023-04-27T03:01:27.634Z,67280.38
2023-04-27T03:03:54.973Z,67282.75
2023-04-27T03:06:22.245Z,67236.47
2023-04-27T03:08:49.284Z,67283.34
2023-04-27T03:11:16.559Z,67281.66
2023-04-27T03:13:43.745Z,67286.50
2023-04-27T03:16:11.490Z,67283.69
2023-04-27T03:18:39.946Z,67276.59
2023-04-27T03:21:11.318Z,67278.06
2023-04-27T03:23:39.698Z,67274.34
2023-04-27T03:26:11.382Z,67268.34
2023-04-27T03:28:40.088Z,67224.69
2023-04-27T03:31:12.424Z,67260.50
2023-04-27T03:33:40.851Z,67259.72
2023-04-27T03:36:08.863Z,67257.47
2023-04-27T03:38:36.253Z,67260.66
2023-04-27T03:41:04.232Z,67214.34
2023-04-27T03:43:31.326Z,67262.31
2023-04-27T03:45:58.817Z,67264.78
2023-04-27T03:48:26.698Z,67263.09
2023-04-27T03:50:55.633Z,67254.31
2023-04-27T03:53:22.692Z,67256.91
2023-04-27T03:55:51.502Z,67205.56
2023-04-27T03:58:18.592Z,67246.44
2023-04-27T04:01:04.330Z,67188.72
2023-04-27T04:03:31.589Z,67234.41
2023-04-27T04:05:59.016Z,67225.44
2023-04-27T04:08:26.110Z,67208.78
2023-04-27T04:10:53.390Z,67217.56
2023-04-27T04:13:20.657Z,67230.28
2023-04-27T04:15:47.771Z,67189.63
2023-04-27T04:18:14.947Z,67232.72
2023-04-27T04:20:42.485Z,67233.84
2023-04-27T04:23:09.561Z,67230.69
2023-04-27T04:25:37.248Z,67185.34
2023-04-27T04:28:04.482Z,67185.91
2023-04-27T04:30:32.540Z,67235.00
2023-04-27T04:32:59.759Z,67245.66
2023-04-27T04:35:26.945Z,67231.47
2023-04-27T04:37:54.010Z,67237.78
2023-04-27T04:40:21.486Z,67242.88
2023-04-27T04:42:48.581Z,67238.94
2023-04-27T04:45:15.641Z,67239.13
2023-04-27T04:47:42.734Z,67258.59
2023-04-27T04:50:11.783Z,67209.50
2023-04-27T04:52:39.486Z,67263.09
2023-04-27T04:55:06.728Z,67279.06
2023-04-27T04:57:33.809Z,67302.81
2023-04-27T05:00:01.936Z,67311.88
2023-04-27T05:02:29.253Z,67329.47
2023-04-27T05:04:57.557Z,67333.97
2023-04-27T05:07:25.171Z,67337.34
2023-04-27T05:09:52.453Z,67336.00
2023-04-27T05:12:19.531Z,67339.03
2023-04-27T05:14:46.638Z,67346.69
2023-04-27T05:17:13.782Z,67336.19
2023-04-27T05:19:40.957Z,67363.56
2023-04-27T05:22:08.019Z,67371.09
2023-04-27T05:24:35.133Z,67365.88
2023-04-27T05:27:02.545Z,67384.03
2023-04-27T05:29:29.736Z,67383.47
2023-04-27T05:31:57.215Z,67391.91
2023-04-27T05:34:24.308Z,67411.81
2023-04-27T05:36:51.382Z,67437.53
2023-04-27T05:39:18.434Z,67459.28
2023-04-27T05:41:45.499Z,67452.16
2023-04-27T05:44:12.578Z,67470.53
2023-04-27T05:46:39.649Z,67451.81
2023-04-27T05:49:06.806Z,67444.28
2023-04-27T05:51:34.077Z,67450.47
2023-04-27T05:54:02.088Z,67473.56
2023-04-27T05:56:29.383Z,67481.09
2023-04-27T05:58:56.468Z,67489.75
2023-04-27T06:01:23.805Z,67503.63
2023-04-27T06:03:51.031Z,67546.63
2023-04-27T06:06:18.251Z,67604.13
2023-04-27T06:08:45.643Z,67633.06
2023-04-27T06:11:14.016Z,67624.44
2023-04-27T06:13:41.509Z,67624.03
2023-04-27T06:16:08.621Z,67628.91
2023-04-27T06:18:35.903Z,67645.44
2023-04-27T06:21:03.048Z,67683.81
2023-04-27T06:23:30.197Z,67691.69
2023-04-27T06:25:58.755Z,67726.13
2023-04-27T06:28:26.282Z,67752.28
2023-04-27T06:30:53.774Z,67783.13
2023-04-27T06:33:20.822Z,67795.19
2023-04-27T06:35:47.871Z,67787.66
2023-04-27T06:38:14.913Z,67785.75
2023-04-27T06:40:41.978Z,67784.81
2023-04-27T06:43:09.068Z,67774.09
2023-04-27T06:45:36.384Z,67815.88
2023-04-27T06:48:03.703Z,67857.28
2023-04-27T06:50:30.932Z,67869.00
2023-04-27T06:52:58.122Z,67925.69
2023-04-27T06:55:25.366Z,67915.31
2023-04-27T06:57:52.474Z,67927.41
2023-04-27T07:00:20.046Z,67989.56
2023-04-27T07:02:47.229Z,68046.13
2023-04-27T07:05:14.367Z,68078.56
2023-04-27T07:07:41.437Z,68033.88
2023-04-27T07:10:09.210Z,68048.38
2023-04-27T07:12:37.685Z,68120.84
2023-04-27T07:15:06.581Z,68176.31
2023-04-27T07:17:36.924Z,68209.72
2023-04-27T07:20:06.508Z,68308.84
2023-04-27T07:22:34.186Z,68185.00
2023-04-27T07:25:01.324Z,68197.06
2023-04-27T07:27:29.674Z,68259.19
2023-04-27T07:29:56.937Z,68241.81
2023-04-27T07:32:24.271Z,68224.81
2023-04-27T07:34:54.180Z,68187.28
2023-04-27T07:37:22.903Z,68218.59
2023-04-27T07:39:52.096Z,68239.00
2023-04-27T07:42:19.994Z,68184.25
2023-04-27T07:44:47.462Z,68181.59
2023-04-27T07:47:14.491Z,68175.56
2023-04-27T07:49:41.606Z,68203.28
2023-04-27T07:52:08.696Z,68119.50
2023-04-27T07:54:36.081Z,68110.63
2023-04-27T07:57:10.091Z,68087.59
2023-04-27T07:59:38.347Z,68082.72
2023-04-27T08:02:17.696Z,68089.31
2023-04-27T08:04:49.824Z,68083.81
2023-04-27T08:07:18.387Z,68142.53
2023-04-27T08:09:45.821Z,68206.53
2023-04-27T08:12:12.982Z,68222.16
2023-04-27T08:14:40.148Z,68236.72
2023-04-27T08:17:07.389Z,68183.66
2023-04-27T08:19:34.925Z,68237.47
2023-04-27T08:22:02.340Z,68200.84
2023-04-27T08:24:29.537Z,68230.13
2023-04-27T08:26:56.889Z,68272.78
2023-04-27T08:29:28.409Z,68280.16
2023-04-27T08:31:59.888Z,68239.00
2023-04-27T08:34:28.461Z,68241.81
2023-04-27T08:36:56.721Z,68273.53
2023-04-27T08:39:24.968Z,68336.66
2023-04-27T08:41:52.675Z,68383.16
2023-04-27T08:44:19.730Z,68394.84
2023-04-27T08:46:51.125Z,68368.78
2023-04-27T08:49:18.952Z,68380.69
2023-04-27T08:51:46.696Z,68452.91
2023-04-27T08:54:13.832Z,68423.41
2023-04-27T08:56:42.535Z,68455.94
2023-04-27T08:59:18.025Z,68464.25
2023-04-27T09:01:48.650Z,68447.81
2023-04-27T09:04:18.082Z,68462.56
2023-04-27T09:06:52.768Z,68417.72
2023-04-27T09:09:24.201Z,68428.34
2023-04-27T09:11:58.472Z,68458.00
2023-04-27T09:14:25.697Z,68518.19
2023-04-27T09:17:00.135Z,68468.25
2023-04-27T09:19:28.774Z,68456.31
2023-04-27T09:22:15.602Z,68377.66
2023-04-27T09:24:55.040Z,68320.56
2023-04-27T09:27:22.951Z,68210.09
2023-04-27T09:29:52.829Z,68249.94
2023-04-27T09:32:23.916Z,68357.44
2023-04-27T09:34:51.480Z,68472.22
2023-04-27T09:37:26.794Z,68433.03
2023-04-27T09:39:54.183Z,68350.06
2023-04-27T09:42:30.628Z,68289.03
2023-04-27T09:45:02.718Z,68213.88
2023-04-27T09:47:30.662Z,68175.19
2023-04-27T09:50:00.765Z,68164.22
2023-04-27T09:52:31.574Z,68131.41
2023-04-27T09:55:00.303Z,68146.31
2023-04-27T09:57:41.216Z,68129.31
2023-04-27T10:00:29.924Z,68116.28
2023-04-27T10:03:23.762Z,68104.03
2023-04-27T10:06:37.821Z,68189.31
2023-04-27T10:09:06.523Z,68350.06
2023-04-27T10:11:39.976Z,68478.44
2023-04-27T10:14:09.399Z,68383.34
2023-04-27T10:16:45.786Z,68336.47
2023-04-27T10:19:18.297Z,68403.38
2023-04-27T10:21:57.485Z,68458.00
2023-04-27T10:24:41.910Z,68505.69
2023-04-27T10:27:12.177Z,68444.41
2023-04-27T10:29:43.952Z,68297.53
2023-04-27T10:32:24.503Z,68218.41
2023-04-27T10:35:02.133Z,68183.66
2023-04-27T10:37:44.987Z,68199.31
2023-04-27T10:40:14.981Z,68163.47
2023-04-27T10:42:42.305Z,68128.38
2023-04-27T10:45:16.184Z,68151.56
2023-04-27T10:47:46.716Z,68137.06
2023-04-27T10:50:15.564Z,68146.50
2023-04-27T10:52:44.257Z,68173.09
2023-04-27T10:55:18.206Z,68197.06
2023-04-27T10:57:53.900Z,68218.03
2023-04-27T11:00:25.722Z,68208.56
2023-04-27T11:02:57.909Z,68243.13
2023-04-27T11:05:30.379Z,68304.13
2023-04-27T11:08:15.333Z,68300.00
2023-04-27T11:10:49.391Z,68253.53
2023-04-27T11:13:24.624Z,68271.25
2023-04-27T11:15:57.852Z,68427.75
2023-04-27T11:18:29.736Z,68539.19
2023-04-27T11:21:16.089Z,68607.31
2023-04-27T11:23:43.772Z,68601.63
2023-04-27T11:26:15.074Z,68570.22
2023-04-27T11:29:09.467Z,68494.88
2023-04-27T11:31:57.061Z,68391.47
2023-04-27T11:34:24.961Z,68300.16
2023-04-27T11:37:10.807Z,68308.69
2023-04-27T11:39:45.833Z,68298.28
2023-04-27T11:42:22.363Z,68304.13
2023-04-27T11:44:58.605Z,68310.38
2023-04-27T11:47:28.805Z,68418.13
2023-04-27T11:50:09.030Z,68471.25
2023-04-27T11:52:40.709Z,68472.41
2023-04-27T11:55:15.754Z,68468.03
2023-04-27T11:57:43.235Z,68416.03
2023-04-27T12:00:11.128Z,68430.78
2023-04-27T12:02:46.822Z,68443.06
2023-04-27T12:05:18.068Z,68423.78
2023-04-27T12:07:45.517Z,68444.41
2023-04-27T12:10:21.660Z,68416.41
2023-04-27T12:12:49.600Z,68403.00
2023-04-27T12:15:16.828Z,68385.59
2023-04-27T12:17:47.192Z,68352.53
2023-04-27T12:20:17.045Z,68344.97
2023-04-27T12:22:55.016Z,68359.72
2023-04-27T12:25:25.170Z,68410.19
2023-04-27T12:27:52.347Z,68405.81
2023-04-27T12:30:21.745Z,68447.25
2023-04-27T12:32:49.140Z,68468.03
2023-04-27T12:35:16.435Z,68527.09
2023-04-27T12:37:46.020Z,68517.22
2023-04-27T12:40:14.377Z,68498.47
2023-04-27T12:42:44.896Z,68548.84
2023-04-27T12:45:17.515Z,68572.13
2023-04-27T12:48:01.757Z,68484.69
2023-04-27T12:50:36.776Z,68371.22
2023-04-27T12:53:03.806Z,68327.78
2023-04-27T12:55:33.798Z,68337.03
2023-04-27T12:58:03.307Z,68422.09
2023-04-27T13:00:36.526Z,68482.59
2023-04-27T13:03:04.561Z,68456.69
2023-04-27T13:05:37.157Z,68429.28
2023-04-27T13:08:16.551Z,68473.53
2023-04-27T13:10:49.681Z,68508.53
2023-04-27T13:13:23.159Z,68579.31
2023-04-27T13:15:50.692Z,68587.44
2023-04-27T13:18:21.107Z,68535.78
2023-04-27T13:20:48.844Z,68481.47
2023-04-27T13:23:16.142Z,68348.75
2023-04-27T13:25:43.317Z,68344.03
2023-04-27T13:28:16.252Z,68426.25
2023-04-27T13:30:43.523Z,68462.38
2023-04-27T13:33:23.251Z,68481.66
2023-04-27T13:35:51.721Z,68445.34
2023-04-27T13:38:25.156Z,68449.91
2023-04-27T13:40:53.708Z,68439.66
2023-04-27T13:43:20.800Z,68427.19
2023-04-27T13:45:49.599Z,68460.09
2023-04-27T13:48:19.641Z,68505.88
2023-04-27T13:50:50.033Z,68521.78
2023-04-27T13:53:29.147Z,68482.03
2023-04-27T13:55:59.457Z,68449.13
2023-04-27T13:58:29.112Z,68492.44
2023-04-27T14:00:56.592Z,68522.53
2023-04-27T14:03:29.956Z,68531.81
2023-04-27T14:05:57.176Z,68505.16
2023-04-27T14:08:24.384Z,68427.56
2023-04-27T14:10:55.096Z,68424.72
2023-04-27T14:13:27.565Z,68420.38
2023-04-27T14:15:57.034Z,68428.91
2023-04-27T14:18:32.255Z,68515.75
2023-04-27T14:21:00.253Z,68582.53
2023-04-27T14:23:27.557Z,68585.94
2023-04-27T14:25:54.978Z,68575.69
2023-04-27T14:28:22.090Z,68498.69
2023-04-27T14:30:54.331Z,68411.50
2023-04-27T14:33:45.158Z,68442.50
2023-04-27T14:36:15.413Z,68474.84
2023-04-27T14:38:54.336Z,68510.06
2023-04-27T14:41:22.806Z,68477.88
2023-04-27T14:43:50.000Z,68476.19
2023-04-27T14:46:20.928Z,68479.75
2023-04-27T14:48:49.644Z,68524.06
2023-04-27T14:51:20.001Z,68530.69
2023-04-27T14:53:49.697Z,68482.22
2023-04-27T14:56:28.563Z,68435.13
2023-04-27T14:58:56.007Z,68487.34
2023-04-27T15:01:32.015Z,68519.88
2023-04-27T15:04:02.633Z,68530.09
2023-04-27T15:06:31.548Z,68499.81
2023-04-27T15:08:59.830Z,68492.44
2023-04-27T15:11:27.628Z,68489.59
2023-04-27T15:14:00.899Z,68463.31
2023-04-27T15:16:39.433Z,68462.94
2023-04-27T15:19:07.181Z,68431.16
2023-04-27T15:21:40.284Z,68393.91
2023-04-27T15:24:07.465Z,68354.25
2023-04-27T15:26:34.589Z,68365.75
2023-04-27T15:29:01.887Z,68373.69
2023-04-27T15:31:29.823Z,68379.19
2023-04-27T15:34:00.497Z,68403.75
2023-04-27T15:36:28.468Z,68431.16
2023-04-27T15:39:17.308Z,68416.78
2023-04-27T15:41:50.436Z,68403.00
2023-04-27T15:44:23.873Z,68450.63
2023-04-27T15:46:53.537Z,68445.16
2023-04-27T15:49:21.222Z,68390.16
2023-04-27T15:51:51.859Z,68378.44
2023-04-27T15:54:20.851Z,68352.53
2023-04-27T15:56:49.699Z,68376.16
2023-04-27T15:59:16.994Z,68372.00
2023-04-27T16:01:53.395Z,68396.94
2023-04-27T16:04:26.550Z,68360.47
2023-04-27T16:06:56.528Z,68343.06
2023-04-27T16:09:24.101Z,68324.53
2023-04-27T16:11:51.403Z,68311.50
2023-04-27T16:14:18.393Z,68323.59
2023-04-27T16:16:46.367Z,68376.72
2023-04-27T16:19:14.142Z,68376.91
2023-04-27T16:21:41.407Z,68367.66
2023-04-27T16:24:08.688Z,68377.28
2023-04-27T16:26:37.412Z,68396.75
2023-04-27T16:29:09.710Z,68406.41
2023-04-27T16:31:38.856Z,68363.13
2023-04-27T16:34:06.121Z,68346.66
2023-04-27T16:36:37.740Z,68366.69
2023-04-27T16:39:05.279Z,68380.13
2023-04-27T16:41:32.575Z,68331.94
2023-04-27T16:43:59.816Z,68319.44
2023-04-27T16:46:27.082Z,68314.53
2023-04-27T16:48:54.414Z,68333.97
2023-04-27T16:51:24.910Z,68330.41
2023-04-27T16:53:52.004Z,68323.22
2023-04-27T16:56:30.300Z,68329.66
2023-04-27T16:58:58.234Z,68310.75
2023-04-27T17:01:28.846Z,68312.25
2023-04-27T17:03:57.857Z,68281.88
2023-04-27T17:06:26.292Z,68276.19
2023-04-27T17:08:53.723Z,68286.94
2023-04-27T17:11:21.174Z,68288.28
2023-04-27T17:13:51.082Z,68300.75
2023-04-27T17:16:19.685Z,68300.16
2023-04-27T17:18:48.642Z,68277.91
2023-04-27T17:21:16.782Z,68271.84
2023-04-27T17:23:46.572Z,68266.19
2023-04-27T17:26:16.025Z,68268.44
2023-04-27T17:28:43.396Z,68260.50
2023-04-27T17:31:10.472Z,68246.53
2023-04-27T17:33:39.185Z,68233.31
2023-04-27T17:36:09.203Z,68217.47
2023-04-27T17:38:36.408Z,68203.66
2023-04-27T17:41:03.461Z,68182.91
2023-04-27T17:43:32.097Z,68161.41
2023-04-27T17:45:59.352Z,68155.38
2023-04-27T17:48:29.595Z,68130.25
2023-04-27T17:50:56.800Z,68124.63
2023-04-27T17:53:23.862Z,68096.84
2023-04-27T17:55:52.662Z,68090.06
2023-04-27T17:58:19.814Z,68078.94
2023-04-27T18:00:48.157Z,68071.38
2023-04-27T18:03:17.945Z,68057.03
2023-04-27T18:05:45.225Z,68031.81
2023-04-27T18:08:12.413Z,68010.50
2023-04-27T18:10:39.503Z,68000.13
2023-04-27T18:13:06.646Z,67980.34
2023-04-27T18:15:33.805Z,67917.72
2023-04-27T18:18:01.591Z,67954.31
2023-04-27T18:20:28.702Z,67953.19
2023-04-27T18:22:55.957Z,67962.06
2023-04-27T18:25:23.030Z,67975.25
2023-04-27T18:27:55.281Z,67976.38
2023-04-27T18:30:23.180Z,67974.84
2023-04-27T18:32:51.495Z,67968.66
2023-04-27T18:35:18.775Z,67970.34
2023-04-27T18:37:50.135Z,67957.16
2023-04-27T18:40:21.424Z,67943.97
2023-04-27T18:42:50.674Z,67924.75
2023-04-27T18:45:18.076Z,67917.59
2023-04-27T18:47:45.322Z,67915.88
2023-04-27T18:50:17.388Z,67913.84
2023-04-27T18:52:45.118Z,67920.22
2023-04-27T18:55:14.057Z,67925.88
2023-04-27T18:57:41.414Z,67921.34
2023-04-27T19:00:10.829Z,67896.50
2023-04-27T19:02:38.669Z,67896.47
2023-04-27T19:05:12.414Z,67885.38
2023-04-27T19:07:42.047Z,67883.69
2023-04-27T19:10:10.234Z,67840.91
2023-04-27T19:12:38.315Z,67899.88
2023-04-27T19:15:05.885Z,67909.13
2023-04-27T19:17:33.279Z,67916.47
2023-04-27T19:20:02.025Z,67907.78
2023-04-27T19:22:34.110Z,67902.69
2023-04-27T19:25:01.270Z,67909.28
2023-04-27T19:27:28.636Z,67903.47
2023-04-27T19:29:58.616Z,67902.69
2023-04-27T19:32:28.376Z,67887.66
2023-04-27T19:34:57.225Z,67895.91
2023-04-27T19:37:25.228Z,67900.66
2023-04-27T19:39:53.813Z,67904.59
2023-04-27T19:42:25.030Z,67905.53
2023-04-27T19:44:52.172Z,67897.25
2023-04-27T19:47:19.379Z,67906.28
2023-04-27T19:49:46.825Z,67921.91
2023-04-27T19:52:14.150Z,67926.63
2023-04-27T19:54:41.716Z,67922.31
2023-04-27T19:57:09.126Z,67922.31
2023-04-27T19:59:36.560Z,67916.47
2023-04-27T20:02:04.391Z,67907.63
2023-04-27T20:04:33.090Z,67916.09
2023-04-27T20:07:05.097Z,67917.22
2023-04-27T20:09:33.791Z,67913.63
2023-04-27T20:12:01.443Z,67896.31
2023-04-27T20:14:31.148Z,67875.19
2023-04-27T20:16:58.282Z,67814.38
2023-04-27T20:19:25.373Z,67875.19
2023-04-27T20:21:52.582Z,67891.78
2023-04-27T20:24:19.840Z,67907.41
2023-04-27T20:26:47.423Z,67927.19
2023-04-27T20:29:14.519Z,67926.25
2023-04-27T20:31:41.688Z,67924.75
2023-04-27T20:34:09.085Z,67906.66
2023-04-27T20:36:36.482Z,67900.66
2023-04-27T20:39:06.465Z,67912.88
2023-04-27T20:41:33.836Z,67907.03
2023-04-27T20:44:02.040Z,67898.94
2023-04-27T20:46:29.866Z,67892.16
2023-04-27T20:48:56.885Z,67888.19
2023-04-27T20:51:24.087Z,67899.28
2023-04-27T20:53:51.448Z,67903.66
2023-04-27T20:56:18.823Z,67898.94
2023-04-27T20:58:46.338Z,67888.56
2023-04-27T21:01:13.770Z,67897.63
2023-04-27T21:03:41.583Z,67889.91
2023-04-27T21:06:09.254Z,67879.94
2023-04-27T21:08:39.224Z,67855.81
2023-04-27T21:11:06.704Z,67836.56
2023-04-27T21:13:33.854Z,67810.81
2023-04-27T21:16:02.619Z,67812.50
2023-04-27T21:18:30.892Z,67824.16
2023-04-27T21:20:58.458Z,67809.31
2023-04-27T21:23:25.752Z,67831.69
2023-04-27T21:25:53.245Z,67837.13
2023-04-27T21:28:20.430Z,67830.00
2023-04-27T21:30:47.521Z,67829.25
2023-04-27T21:33:14.790Z,67816.25
2023-04-27T21:35:41.907Z,67798.19
2023-04-27T21:38:09.053Z,67791.59
2023-04-27T21:40:36.529Z,67784.81
2023-04-27T21:43:03.626Z,67794.41
2023-04-27T21:45:31.136Z,67816.81
2023-04-27T21:48:01.264Z,67816.44
2023-04-27T21:50:28.356Z,67762.44
2023-04-27T21:52:55.408Z,67815.88
2023-04-27T21:55:23.700Z,67813.22
2023-04-27T21:57:50.895Z,67790.47
2023-04-27T22:00:19.019Z,67745.50
2023-04-27T22:02:46.177Z,67786.50
2023-04-27T22:05:14.099Z,67785.75
2023-04-27T22:07:41.462Z,67776.50
2023-04-27T22:10:09.204Z,67772.22
2023-04-27T22:12:36.316Z,67778.06
2023-04-27T22:15:03.571Z,67767.13
2023-04-27T22:17:30.669Z,67763.94
2023-04-27T22:19:59.155Z,67778.06
2023-04-27T22:22:26.497Z,67763.56
2023-04-27T22:24:53.570Z,67709.41
2023-04-27T22:27:22.186Z,67745.72
2023-04-27T22:29:49.728Z,67743.63
2023-04-27T22:32:18.063Z,67747.38
2023-04-27T22:34:45.364Z,67740.03
2023-04-27T22:37:12.406Z,67688.34
2023-04-27T22:39:39.519Z,67683.44
2023-04-27T22:42:06.809Z,67703.53
2023-04-27T22:44:34.185Z,67687.38
2023-04-27T22:47:02.440Z,67684.72
2023-04-27T22:49:29.442Z,67633.09
2023-04-27T22:51:57.813Z,67669.13
2023-04-27T22:54:25.013Z,67675.91
2023-04-27T22:56:52.621Z,67666.09
2023-04-27T22:59:25.621Z,67671.97
2023-04-27T23:01:53.815Z,67616.94
2023-04-27T23:04:23.233Z,67606.03
2023-04-27T23:06:53.672Z,67650.16
2023-04-27T23:09:24.390Z,67646.22
2023-04-27T23:11:51.478Z,67656.19
2023-04-27T23:14:18.539Z,67645.66
2023-04-27T23:16:46.465Z,67594.94
2023-04-27T23:19:17.927Z,67651.88
2023-04-27T23:21:46.000Z,67651.47
2023-04-27T23:24:13.369Z,67641.50
2023-04-27T23:26:40.829Z,67643.56
2023-04-27T23:29:08.117Z,67640.59
2023-04-27T23:31:35.814Z,67643.19
2023-04-27T23:34:03.355Z,67603.97
2023-04-27T23:36:30.856Z,67631.00
2023-04-27T23:38:57.913Z,67628.19
2023-04-27T23:41:25.018Z,67620.06
2023-04-27T23:43:52.062Z,67631.72
2023-04-27T23:46:19.172Z,67614.25
2023-04-27T23:48:46.290Z,67607.47
2023-04-27T23:51:13.324Z,67605.63
2023-04-27T23:53:40.419Z,67618.94
2023-04-27T23:56:18.620Z,67611.25
2023-04-27T23:58:45.887Z,67607.47
